sensor_id;sensor_type;location;lat;lon;timestamp;temperature;humidity
5027;DHT22;2532;52.480;13.354;2023-04-24T04:01:09;14.20;97.70
5027;DHT22;2532;52.480;13.354;2023-04-24T04:03:37;14.30;97.70
5027;DHT22;2532;52.480;13.354;2023-04-24T04:06:04;14.30;97.70
5027;DHT22;2532;52.480;13.354;2023-04-24T04:08:31;14.30;97.70
5027;DHT22;2532;52.480;13.354;2023-04-24T04:10:58;14.30;97.70
5027;DHT22;2532;52.480;13.354;2023-04-24T04:13:25;14.30;97.70
5027;DHT22;2532;52.480;13.354;2023-04-24T04:15:52;14.30;97.60
5027;DHT22;2532;52.480;13.354;2023-04-24T04:18:20;14.40;97.60
5027;DHT22;2532;52.480;13.354;2023-04-24T04:20:47;14.40;97.60
5027;DHT22;2532;52.480;13.354;2023-04-24T04:23:14;14.40;97.60
5027;DHT22;2532;52.480;13.354;2023-04-24T04:25:41;14.40;97.60
5027;DHT22;2532;52.480;13.354;2023-04-24T04:28:08;14.40;97.60
5027;DHT22;2532;52.480;13.354;2023-04-24T04:30:35;14.40;97.50
5027;DHT22;2532;52.480;13.354;2023-04-24T04:33:03;14.40;97.50
5027;DHT22;2532;52.480;13.354;2023-04-24T04:35:32;14.40;97.50
5027;DHT22;2532;52.480;13.354;2023-04-24T04:37:58;14.40;97.50
5027;DHT22;2532;52.480;13.354;2023-04-24T04:40:26;14.40;97.50
5027;DHT22;2532;52.480;13.354;2023-04-24T04:42:53;14.40;97.50
5027;DHT22;2532;52.480;13.354;2023-04-24T04:45:21;14.50;97.50
5027;DHT22;2532;52.480;13.354;2023-04-24T04:47:49;14.40;97.50
5027;DHT22;2532;52.480;13.354;2023-04-24T04:50:16;14.50;97.50
5027;DHT22;2532;52.480;13.354;2023-04-24T04:52:45;14.40;97.40
5027;DHT22;2532;52.480;13.354;2023-04-24T04:55:12;14.50;97.40
5027;DHT22;2532;52.480;13.354;2023-04-24T04:57:40;14.50;97.40
5027;DHT22;2532;52.480;13.354;2023-04-24T05:00:08;14.50;97.40
5027;DHT22;2532;52.480;13.354;2023-04-24T05:02:36;14.50;97.40
5027;DHT22;2532;52.480;13.354;2023-04-24T05:05:03;14.50;97.40
5027;DHT22;2532;52.480;13.354;2023-04-24T05:07:31;14.50;97.30
5027;DHT22;2532;52.480;13.354;2023-04-24T05:09:59;14.60;97.30
5027;DHT22;2532;52.480;13.354;2023-04-24T05:12:26;14.60;97.30
5027;DHT22;2532;52.480;13.354;2023-04-24T05:14:53;14.60;97.10
5027;DHT22;2532;52.480;13.354;2023-04-24T05:17:20;14.60;97.10
5027;DHT22;2532;52.480;13.354;2023-04-24T05:19:47;14.70;97.00
5027;DHT22;2532;52.480;13.354;2023-04-24T05:22:14;14.70;96.90
5027;DHT22;2532;52.480;13.354;2023-04-24T05:24:41;14.70;96.90
5027;DHT22;2532;52.480;13.354;2023-04-24T05:27:09;14.70;96.90
5027;DHT22;2532;52.480;13.354;2023-04-24T05:29:36;14.80;96.80
5027;DHT22;2532;52.480;13.354;2023-04-24T05:32:03;14.80;96.70
5027;DHT22;2532;52.480;13.354;2023-04-24T05:34:30;14.80;96.60
5027;DHT22;2532;52.480;13.354;2023-04-24T05:36:56;14.80;96.50
5027;DHT22;2532;52.480;13.354;2023-04-24T05:39:23;14.80;96.30
5027;DHT22;2532;52.480;13.354;2023-04-24T05:41:51;14.90;96.30
5027;DHT22;2532;52.480;13.354;2023-04-24T05:44:19;14.80;96.30
5027;DHT22;2532;52.480;13.354;2023-04-24T05:46:46;14.90;96.20
5027;DHT22;2532;52.480;13.354;2023-04-24T05:49:13;14.90;96.20
5027;DHT22;2532;52.480;13.354;2023-04-24T05:51:40;14.90;96.20
5027;DHT22;2532;52.480;13.354;2023-04-24T05:54:07;15.00;96.20
5027;DHT22;2532;52.480;13.354;2023-04-24T05:56:34;15.00;96.10
5027;DHT22;2532;52.480;13.354;2023-04-24T05:59:01;15.00;96.00
5027;DHT22;2532;52.480;13.354;2023-04-24T06:01:30;15.00;96.00
5027;DHT22;2532;52.480;13.354;2023-04-24T06:03:58;15.00;95.90
5027;DHT22;2532;52.480;13.354;2023-04-24T06:06:25;15.00;96.00
5027;DHT22;2532;52.480;13.354;2023-04-24T06:08:52;15.00;96.00
5027;DHT22;2532;52.480;13.354;2023-04-24T06:11:19;15.10;95.90
5027;DHT22;2532;52.480;13.354;2023-04-24T06:13:46;15.10;95.90
5027;DHT22;2532;52.480;13.354;2023-04-24T06:16:13;15.10;95.80
5027;DHT22;2532;52.480;13.354;2023-04-24T06:18:42;15.20;95.80
5027;DHT22;2532;52.480;13.354;2023-04-24T06:21:09;15.20;95.60
5027;DHT22;2532;52.480;13.354;2023-04-24T06:23:35;15.20;95.60
5027;DHT22;2532;52.480;13.354;2023-04-24T06:26:02;15.20;95.50
5027;DHT22;2532;52.480;13.354;2023-04-24T06:28:29;15.30;95.40
5027;DHT22;2532;52.480;13.354;2023-04-24T06:30:56;15.40;95.30
5027;DHT22;2532;52.480;13.354;2023-04-24T06:33:23;15.40;95.00
5027;DHT22;2532;52.480;13.354;2023-04-24T06:35:51;15.50;94.90
5027;DHT22;2532;52.480;13.354;2023-04-24T06:38:18;15.50;94.90
5027;DHT22;2532;52.480;13.354;2023-04-24T06:40:45;15.60;94.90
5027;DHT22;2532;52.480;13.354;2023-04-24T06:43:12;15.60;94.70
5027;DHT22;2532;52.480;13.354;2023-04-24T06:45:40;15.70;94.40
5027;DHT22;2532;52.480;13.354;2023-04-24T06:48:08;15.80;94.10
5027;DHT22;2532;52.480;13.354;2023-04-24T06:50:35;15.90;94.00
5027;DHT22;2532;52.480;13.354;2023-04-24T06:53:04;16.00;93.70
5027;DHT22;2532;52.480;13.354;2023-04-24T06:55:30;16.00;93.70
5027;DHT22;2532;52.480;13.354;2023-04-24T06:57:57;16.10;93.60
5027;DHT22;2532;52.480;13.354;2023-04-24T07:00:24;16.10;93.30
5027;DHT22;2532;52.480;13.354;2023-04-24T07:02:51;16.20;93.10
5027;DHT22;2532;52.480;13.354;2023-04-24T07:05:18;16.20;93.10
5027;DHT22;2532;52.480;13.354;2023-04-24T07:07:46;16.30;93.30
5027;DHT22;2532;52.480;13.354;2023-04-24T07:10:16;16.40;92.80
5027;DHT22;2532;52.480;13.354;2023-04-24T07:12:43;16.40;92.90
5027;DHT22;2532;52.480;13.354;2023-04-24T07:15:11;16.50;92.70
5027;DHT22;2532;52.480;13.354;2023-04-24T07:17:38;16.60;92.30
5027;DHT22;2532;52.480;13.354;2023-04-24T07:20:09;16.70;92.10
5027;DHT22;2532;52.480;13.354;2023-04-24T07:22:37;16.80;91.80
5027;DHT22;2532;52.480;13.354;2023-04-24T07:25:05;16.90;91.50
5027;DHT22;2532;52.480;13.354;2023-04-24T07:27:33;16.90;91.30
5027;DHT22;2532;52.480;13.354;2023-04-24T07:30:01;17.00;90.70
5027;DHT22;2532;52.480;13.354;2023-04-24T07:32:28;16.90;90.50
5027;DHT22;2532;52.480;13.354;2023-04-24T07:34:55;17.00;90.30
5027;DHT22;2532;52.480;13.354;2023-04-24T07:37:22;17.00;90.30
5027;DHT22;2532;52.480;13.354;2023-04-24T07:39:49;17.10;90.60
5027;DHT22;2532;52.480;13.354;2023-04-24T07:42:17;17.20;90.20
5027;DHT22;2532;52.480;13.354;2023-04-24T07:44:45;17.20;88.70
5027;DHT22;2532;52.480;13.354;2023-04-24T07:47:13;17.30;87.70
5027;DHT22;2532;52.480;13.354;2023-04-24T07:49:41;17.30;86.10
5027;DHT22;2532;52.480;13.354;2023-04-24T07:52:08;17.30;86.30
5027;DHT22;2532;52.480;13.354;2023-04-24T07:54:35;17.30;85.80
5027;DHT22;2532;52.480;13.354;2023-04-24T07:57:02;17.40;84.50
5027;DHT22;2532;52.480;13.354;2023-04-24T07:59:29;17.40;84.90
5027;DHT22;2532;52.480;13.354;2023-04-24T08:01:58;17.50;83.60
5027;DHT22;2532;52.480;13.354;2023-04-24T08:04:26;17.60;83.60
5027;DHT22;2532;52.480;13.354;2023-04-24T08:06:53;17.60;83.10
5027;DHT22;2532;52.480;13.354;2023-04-24T08:09:20;17.70;83.10
5027;DHT22;2532;52.480;13.354;2023-04-24T08:11:47;17.70;82.00
5027;DHT22;2532;52.480;13.354;2023-04-24T08:14:14;17.80;81.80
5027;DHT22;2532;52.480;13.354;2023-04-24T08:16:41;17.90;82.40
5027;DHT22;2532;52.480;13.354;2023-04-24T08:19:09;17.90;81.60
5027;DHT22;2532;52.480;13.354;2023-04-24T08:21:36;17.90;81.80
5027;DHT22;2532;52.480;13.354;2023-04-24T08:24:03;17.90;82.60
5027;DHT22;2532;52.480;13.354;2023-04-24T08:26:33;17.90;82.60
5027;DHT22;2532;52.480;13.354;2023-04-24T08:29:00;18.00;83.30
5027;DHT22;2532;52.480;13.354;2023-04-24T08:31:27;18.10;83.40
5027;DHT22;2532;52.480;13.354;2023-04-24T08:33:54;18.10;82.90
5027;DHT22;2532;52.480;13.354;2023-04-24T08:36:22;18.20;81.10
5027;DHT22;2532;52.480;13.354;2023-04-24T08:38:49;18.30;80.00
5027;DHT22;2532;52.480;13.354;2023-04-24T08:41:16;18.30;80.00
5027;DHT22;2532;52.480;13.354;2023-04-24T08:43:46;18.40;80.30
5027;DHT22;2532;52.480;13.354;2023-04-24T08:46:13;18.40;80.30
5027;DHT22;2532;52.480;13.354;2023-04-24T08:48:42;18.40;80.40
5027;DHT22;2532;52.480;13.354;2023-04-24T08:51:09;18.50;80.50
5027;DHT22;2532;52.480;13.354;2023-04-24T08:53:38;18.50;79.60
5027;DHT22;2532;52.480;13.354;2023-04-24T08:56:05;18.60;79.90
5027;DHT22;2532;52.480;13.354;2023-04-24T08:58:33;18.60;80.50
5027;DHT22;2532;52.480;13.354;2023-04-24T09:01:00;18.70;80.20
5027;DHT22;2532;52.480;13.354;2023-04-24T09:03:28;18.70;80.70
5027;DHT22;2532;52.480;13.354;2023-04-24T09:05:56;18.80;81.10
5027;DHT22;2532;52.480;13.354;2023-04-24T09:08:25;18.70;80.80
5027;DHT22;2532;52.480;13.354;2023-04-24T09:10:53;18.70;81.60
5027;DHT22;2532;52.480;13.354;2023-04-24T09:13:20;18.60;82.30
5027;DHT22;2532;52.480;13.354;2023-04-24T09:15:47;18.60;81.80
5027;DHT22;2532;52.480;13.354;2023-04-24T09:18:14;18.60;82.00
5027;DHT22;2532;52.480;13.354;2023-04-24T09:20:57;18.70;82.30
5027;DHT22;2532;52.480;13.354;2023-04-24T09:23:26;18.70;83.00
5027;DHT22;2532;52.480;13.354;2023-04-24T09:25:56;18.70;84.00
5027;DHT22;2532;52.480;13.354;2023-04-24T09:28:26;18.60;84.70
5027;DHT22;2532;52.480;13.354;2023-04-24T09:31:08;18.60;85.40
5027;DHT22;2532;52.480;13.354;2023-04-24T09:33:35;18.60;85.40
5027;DHT22;2532;52.480;13.354;2023-04-24T09:36:03;18.70;85.40
5027;DHT22;2532;52.480;13.354;2023-04-24T09:38:35;18.70;84.70
5027;DHT22;2532;52.480;13.354;2023-04-24T09:41:05;18.70;84.90
5027;DHT22;2532;52.480;13.354;2023-04-24T09:43:33;18.70;84.80
5027;DHT22;2532;52.480;13.354;2023-04-24T09:46:08;18.70;84.30
5027;DHT22;2532;52.480;13.354;2023-04-24T09:48:36;18.70;83.80
5027;DHT22;2532;52.480;13.354;2023-04-24T09:51:05;18.70;83.50
5027;DHT22;2532;52.480;13.354;2023-04-24T09:53:36;18.70;83.50
5027;DHT22;2532;52.480;13.354;2023-04-24T09:56:07;18.70;83.10
5027;DHT22;2532;52.480;13.354;2023-04-24T09:58:35;18.70;83.00
5027;DHT22;2532;52.480;13.354;2023-04-24T10:01:02;18.80;82.60
5027;DHT22;2532;52.480;13.354;2023-04-24T10:03:30;18.80;82.60
5027;DHT22;2532;52.480;13.354;2023-04-24T10:05:58;18.90;82.60
5027;DHT22;2532;52.480;13.354;2023-04-24T10:08:25;18.90;82.60
5027;DHT22;2532;52.480;13.354;2023-04-24T10:10:52;19.00;82.20
5027;DHT22;2532;52.480;13.354;2023-04-24T10:13:21;19.00;81.70
5027;DHT22;2532;52.480;13.354;2023-04-24T10:15:48;19.10;81.40
5027;DHT22;2532;52.480;13.354;2023-04-24T10:18:15;19.10;81.60
5027;DHT22;2532;52.480;13.354;2023-04-24T10:20:42;19.10;81.10
5027;DHT22;2532;52.480;13.354;2023-04-24T10:23:09;19.10;80.90
5027;DHT22;2532;52.480;13.354;2023-04-24T10:25:37;19.10;80.70
5027;DHT22;2532;52.480;13.354;2023-04-24T10:28:04;19.10;80.60
5027;DHT22;2532;52.480;13.354;2023-04-24T10:30:34;19.10;80.70
5027;DHT22;2532;52.480;13.354;2023-04-24T10:33:02;19.10;80.50
5027;DHT22;2532;52.480;13.354;2023-04-24T10:35:31;19.00;81.00
5027;DHT22;2532;52.480;13.354;2023-04-24T10:38:02;19.00;81.40
5027;DHT22;2532;52.480;13.354;2023-04-24T10:40:32;19.00;81.40
5027;DHT22;2532;52.480;13.354;2023-04-24T10:43:01;18.90;80.70
5027;DHT22;2532;52.480;13.354;2023-04-24T10:45:28;18.80;80.80
5027;DHT22;2532;52.480;13.354;2023-04-24T10:48:01;18.80;80.90
5027;DHT22;2532;52.480;13.354;2023-04-24T10:50:30;18.70;80.70
5027;DHT22;2532;52.480;13.354;2023-04-24T10:53:13;18.70;81.10
5027;DHT22;2532;52.480;13.354;2023-04-24T10:55:43;18.70;81.80
5027;DHT22;2532;52.480;13.354;2023-04-24T10:58:10;18.70;81.80
5027;DHT22;2532;52.480;13.354;2023-04-24T11:00:38;18.70;81.90
5027;DHT22;2532;52.480;13.354;2023-04-24T11:03:12;18.70;82.40
5027;DHT22;2532;52.480;13.354;2023-04-24T11:05:55;18.80;82.30
5027;DHT22;2532;52.480;13.354;2023-04-24T11:08:27;18.80;81.90
5027;DHT22;2532;52.480;13.354;2023-04-24T11:10:57;18.80;81.60
5027;DHT22;2532;52.480;13.354;2023-04-24T11:13:24;19.00;81.10
5027;DHT22;2532;52.480;13.354;2023-04-24T11:16:25;19.10;81.60
5027;DHT22;2532;52.480;13.354;2023-04-24T11:19:02;19.20;79.90
5027;DHT22;2532;52.480;13.354;2023-04-24T11:21:31;19.30;80.30
5027;DHT22;2532;52.480;13.354;2023-04-24T11:23:58;19.40;80.00
5027;DHT22;2532;52.480;13.354;2023-04-24T11:26:45;19.50;79.70
5027;DHT22;2532;52.480;13.354;2023-04-24T11:29:12;19.60;79.40
5027;DHT22;2532;52.480;13.354;2023-04-24T11:31:40;19.50;79.00
5027;DHT22;2532;52.480;13.354;2023-04-24T11:34:13;19.50;79.30
5027;DHT22;2532;52.480;13.354;2023-04-24T11:36:42;19.50;81.00
5027;DHT22;2532;52.480;13.354;2023-04-24T11:39:09;19.50;83.50
5027;DHT22;2532;52.480;13.354;2023-04-24T11:41:37;19.40;83.50
5027;DHT22;2532;52.480;13.354;2023-04-24T11:44:06;19.30;80.90
5027;DHT22;2532;52.480;13.354;2023-04-24T11:46:33;19.20;81.60
5027;DHT22;2532;52.480;13.354;2023-04-24T11:49:00;19.20;83.30
5027;DHT22;2532;52.480;13.354;2023-04-24T11:51:29;19.20;84.30
5027;DHT22;2532;52.480;13.354;2023-04-24T11:53:57;19.20;84.60
5027;DHT22;2532;52.480;13.354;2023-04-24T11:56:24;19.30;84.00
5027;DHT22;2532;52.480;13.354;2023-04-24T11:58:52;19.30;83.50
5027;DHT22;2532;52.480;13.354;2023-04-24T12:01:20;19.40;84.10
5027;DHT22;2532;52.480;13.354;2023-04-24T12:03:48;19.40;85.10
5027;DHT22;2532;52.480;13.354;2023-04-24T12:06:17;19.50;85.40
5027;DHT22;2532;52.480;13.354;2023-04-24T12:08:47;19.60;85.00
5027;DHT22;2532;52.480;13.354;2023-04-24T12:11:16;19.60;84.10
5027;DHT22;2532;52.480;13.354;2023-04-24T12:13:46;19.50;84.20
5027;DHT22;2532;52.480;13.354;2023-04-24T12:16:13;19.50;84.00
5027;DHT22;2532;52.480;13.354;2023-04-24T12:18:44;19.50;83.40
5027;DHT22;2532;52.480;13.354;2023-04-24T12:21:18;19.40;82.50
5027;DHT22;2532;52.480;13.354;2023-04-24T12:23:48;19.40;83.00
5027;DHT22;2532;52.480;13.354;2023-04-24T12:26:17;19.50;83.30
5027;DHT22;2532;52.480;13.354;2023-04-24T12:28:47;19.60;81.20
5027;DHT22;2532;52.480;13.354;2023-04-24T12:31:15;19.70;71.00
5027;DHT22;2532;52.480;13.354;2023-04-24T12:33:42;19.70;69.80
5027;DHT22;2532;52.480;13.354;2023-04-24T12:36:10;19.80;68.80
5027;DHT22;2532;52.480;13.354;2023-04-24T12:38:39;19.80;69.20
5027;DHT22;2532;52.480;13.354;2023-04-24T12:41:09;19.80;67.10
5027;DHT22;2532;52.480;13.354;2023-04-24T12:43:36;19.90;67.10
5027;DHT22;2532;52.480;13.354;2023-04-24T12:46:04;19.80;64.90
5027;DHT22;2532;52.480;13.354;2023-04-24T12:48:31;19.80;62.60
5027;DHT22;2532;52.480;13.354;2023-04-24T12:50:59;19.90;62.30
5027;DHT22;2532;52.480;13.354;2023-04-24T12:53:27;19.90;61.60
5027;DHT22;2532;52.480;13.354;2023-04-24T12:55:56;19.90;61.50
5027;DHT22;2532;52.480;13.354;2023-04-24T12:58:25;20.00;61.50
5027;DHT22;2532;52.480;13.354;2023-04-24T13:00:51;20.00;60.20
5027;DHT22;2532;52.480;13.354;2023-04-24T13:03:18;20.00;58.70
5027;DHT22;2532;52.480;13.354;2023-04-24T13:05:48;20.10;58.40
5027;DHT22;2532;52.480;13.354;2023-04-24T13:08:15;20.20;58.50
5027;DHT22;2532;52.480;13.354;2023-04-24T13:10:42;20.20;58.50
5027;DHT22;2532;52.480;13.354;2023-04-24T13:13:09;20.30;58.10
5027;DHT22;2532;52.480;13.354;2023-04-24T13:15:37;20.40;58.10
5027;DHT22;2532;52.480;13.354;2023-04-24T13:18:04;20.50;58.10
5027;DHT22;2532;52.480;13.354;2023-04-24T13:20:31;20.70;58.10
5027;DHT22;2532;52.480;13.354;2023-04-24T13:22:58;20.80;57.80
5027;DHT22;2532;52.480;13.354;2023-04-24T13:25:25;20.80;56.90
5027;DHT22;2532;52.480;13.354;2023-04-24T13:27:52;20.80;56.40
5027;DHT22;2532;52.480;13.354;2023-04-24T13:30:19;20.80;55.40
5027;DHT22;2532;52.480;13.354;2023-04-24T13:32:47;20.70;55.40
5027;DHT22;2532;52.480;13.354;2023-04-24T13:35:15;20.70;55.00
5027;DHT22;2532;52.480;13.354;2023-04-24T13:37:42;20.80;53.90
5027;DHT22;2532;52.480;13.354;2023-04-24T13:40:09;20.70;52.80
5027;DHT22;2532;52.480;13.354;2023-04-24T13:42:36;20.60;53.40
5027;DHT22;2532;52.480;13.354;2023-04-24T13:45:04;20.60;54.10
5027;DHT22;2532;52.480;13.354;2023-04-24T13:47:31;20.60;53.80
5027;DHT22;2532;52.480;13.354;2023-04-24T13:50:00;20.70;54.20
5027;DHT22;2532;52.480;13.354;2023-04-24T13:52:27;20.70;53.20
5027;DHT22;2532;52.480;13.354;2023-04-24T13:54:54;20.90;52.00
5027;DHT22;2532;52.480;13.354;2023-04-24T13:57:21;20.90;52.10
5027;DHT22;2532;52.480;13.354;2023-04-24T13:59:48;20.90;52.00
5027;DHT22;2532;52.480;13.354;2023-04-24T14:02:15;20.90;52.30
5027;DHT22;2532;52.480;13.354;2023-04-24T14:04:42;20.70;52.50
5027;DHT22;2532;52.480;13.354;2023-04-24T14:07:10;20.50;53.20
5027;DHT22;2532;52.480;13.354;2023-04-24T14:09:37;20.40;53.40
5027;DHT22;2532;52.480;13.354;2023-04-24T14:12:04;20.50;52.40
5027;DHT22;2532;52.480;13.354;2023-04-24T14:14:32;20.40;51.90
5027;DHT22;2532;52.480;13.354;2023-04-24T14:16:59;20.40;52.20
5027;DHT22;2532;52.480;13.354;2023-04-24T14:19:26;20.40;52.30
5027;DHT22;2532;52.480;13.354;2023-04-24T14:21:53;20.40;51.60
5027;DHT22;2532;52.480;13.354;2023-04-24T14:24:22;20.30;51.40
5027;DHT22;2532;52.480;13.354;2023-04-24T14:26:49;20.20;51.50
5027;DHT22;2532;52.480;13.354;2023-04-24T14:29:16;20.10;51.40
5027;DHT22;2532;52.480;13.354;2023-04-24T14:31:43;20.20;51.90
5027;DHT22;2532;52.480;13.354;2023-04-24T14:34:10;20.20;51.20
5027;DHT22;2532;52.480;13.354;2023-04-24T14:36:37;20.20;51.40
5027;DHT22;2532;52.480;13.354;2023-04-24T14:39:04;20.20;51.50
5027;DHT22;2532;52.480;13.354;2023-04-24T14:41:33;20.20;51.80
5027;DHT22;2532;52.480;13.354;2023-04-24T14:44:01;20.10;51.70
5027;DHT22;2532;52.480;13.354;2023-04-24T14:46:29;20.10;52.10
5027;DHT22;2532;52.480;13.354;2023-04-24T14:48:56;20.00;51.90
5027;DHT22;2532;52.480;13.354;2023-04-24T14:51:24;20.00;52.50
5027;DHT22;2532;52.480;13.354;2023-04-24T14:53:51;19.90;52.70
5027;DHT22;2532;52.480;13.354;2023-04-24T14:56:18;19.90;52.30
5027;DHT22;2532;52.480;13.354;2023-04-24T14:58:46;19.80;51.90
5027;DHT22;2532;52.480;13.354;2023-04-24T15:01:13;19.70;52.20
5027;DHT22;2532;52.480;13.354;2023-04-24T15:03:40;19.70;52.40
5027;DHT22;2532;52.480;13.354;2023-04-24T15:06:07;19.80;52.70
5027;DHT22;2532;52.480;13.354;2023-04-24T15:08:34;19.90;52.80
5027;DHT22;2532;52.480;13.354;2023-04-24T15:11:01;19.90;52.90
5027;DHT22;2532;52.480;13.354;2023-04-24T15:13:28;19.80;52.90
5027;DHT22;2532;52.480;13.354;2023-04-24T15:15:56;19.70;53.00
5027;DHT22;2532;52.480;13.354;2023-04-24T15:18:23;19.70;53.70
5027;DHT22;2532;52.480;13.354;2023-04-24T15:20:50;19.70;53.20
5027;DHT22;2532;52.480;13.354;2023-04-24T15:23:17;19.80;52.70
5027;DHT22;2532;52.480;13.354;2023-04-24T15:25:44;19.90;52.00
5027;DHT22;2532;52.480;13.354;2023-04-24T15:28:11;20.00;51.70
5027;DHT22;2532;52.480;13.354;2023-04-24T15:30:38;20.00;51.50
5027;DHT22;2532;52.480;13.354;2023-04-24T15:33:06;20.10;52.00
5027;DHT22;2532;52.480;13.354;2023-04-24T15:35:33;20.00;52.30
5027;DHT22;2532;52.480;13.354;2023-04-24T15:38:01;19.90;52.40
5027;DHT22;2532;52.480;13.354;2023-04-24T15:40:29;19.80;52.40
5027;DHT22;2532;52.480;13.354;2023-04-24T15:42:56;19.60;52.30
5027;DHT22;2532;52.480;13.354;2023-04-24T15:45:23;19.40;52.60
5027;DHT22;2532;52.480;13.354;2023-04-24T15:47:51;19.20;52.90
5027;DHT22;2532;52.480;13.354;2023-04-24T15:50:19;19.10;53.00
5027;DHT22;2532;52.480;13.354;2023-04-24T15:52:47;19.00;53.40
5027;DHT22;2532;52.480;13.354;2023-04-24T15:55:14;18.80;53.50
5027;DHT22;2532;52.480;13.354;2023-04-24T15:57:42;18.80;53.60
5027;DHT22;2532;52.480;13.354;2023-04-24T16:00:10;18.70;53.80
5027;DHT22;2532;52.480;13.354;2023-04-24T16:02:37;18.60;54.20
5027;DHT22;2532;52.480;13.354;2023-04-24T16:05:04;18.60;54.20
5027;DHT22;2532;52.480;13.354;2023-04-24T16:07:34;18.50;54.60
5027;DHT22;2532;52.480;13.354;2023-04-24T16:10:00;18.50;54.60
5027;DHT22;2532;52.480;13.354;2023-04-24T16:12:27;18.50;54.90
5027;DHT22;2532;52.480;13.354;2023-04-24T16:14:54;18.40;55.00
5027;DHT22;2532;52.480;13.354;2023-04-24T16:17:21;18.40;55.30
5027;DHT22;2532;52.480;13.354;2023-04-24T16:19:48;18.40;55.50
5027;DHT22;2532;52.480;13.354;2023-04-24T16:22:15;18.40;55.20
5027;DHT22;2532;52.480;13.354;2023-04-24T16:24:43;18.40;55.60
5027;DHT22;2532;52.480;13.354;2023-04-24T16:27:13;18.40;55.20
5027;DHT22;2532;52.480;13.354;2023-04-24T16:29:40;18.30;55.10
5027;DHT22;2532;52.480;13.354;2023-04-24T16:32:07;18.20;55.40
5027;DHT22;2532;52.480;13.354;2023-04-24T16:34:34;18.10;55.50
5027;DHT22;2532;52.480;13.354;2023-04-24T16:37:01;18.10;55.90
5027;DHT22;2532;52.480;13.354;2023-04-24T16:39:28;17.90;56.50
5027;DHT22;2532;52.480;13.354;2023-04-24T16:41:56;17.70;56.90
5027;DHT22;2532;52.480;13.354;2023-04-24T16:44:23;17.60;57.60
5027;DHT22;2532;52.480;13.354;2023-04-24T16:46:50;17.50;58.40
5027;DHT22;2532;52.480;13.354;2023-04-24T16:49:17;17.30;60.20
5027;DHT22;2532;52.480;13.354;2023-04-24T16:51:44;17.20;61.40
5027;DHT22;2532;52.480;13.354;2023-04-24T16:54:11;17.00;62.40
5027;DHT22;2532;52.480;13.354;2023-04-24T16:56:38;16.70;62.90
5027;DHT22;2532;52.480;13.354;2023-04-24T16:59:06;16.40;63.50
5027;DHT22;2532;52.480;13.354;2023-04-24T17:01:34;16.20;64.40
5027;DHT22;2532;52.480;13.354;2023-04-24T17:04:01;16.00;65.30
5027;DHT22;2532;52.480;13.354;2023-04-24T17:06:28;15.90;66.30
5027;DHT22;2532;52.480;13.354;2023-04-24T17:08:56;15.70;67.70
5027;DHT22;2532;52.480;13.354;2023-04-24T17:11:25;15.60;68.90
5027;DHT22;2532;52.480;13.354;2023-04-24T17:13:51;15.50;69.60
5027;DHT22;2532;52.480;13.354;2023-04-24T17:16:20;15.50;70.60
5027;DHT22;2532;52.480;13.354;2023-04-24T17:18:47;15.50;71.50
5027;DHT22;2532;52.480;13.354;2023-04-24T17:21:14;15.50;72.20
5027;DHT22;2532;52.480;13.354;2023-04-24T17:23:41;15.40;73.10
5027;DHT22;2532;52.480;13.354;2023-04-24T17:26:08;15.40;73.80
5027;DHT22;2532;52.480;13.354;2023-04-24T17:28:36;15.40;74.50
5027;DHT22;2532;52.480;13.354;2023-04-24T17:31:03;15.40;74.90
5027;DHT22;2532;52.480;13.354;2023-04-24T17:33:31;15.30;74.70
5027;DHT22;2532;52.480;13.354;2023-04-24T17:35:59;15.10;73.60
5027;DHT22;2532;52.480;13.354;2023-04-24T17:38:27;15.00;73.60
5027;DHT22;2532;52.480;13.354;2023-04-24T17:40:54;14.90;74.10
5027;DHT22;2532;52.480;13.354;2023-04-24T17:43:21;14.80;74.50
5027;DHT22;2532;52.480;13.354;2023-04-24T17:45:50;14.70;74.40
5027;DHT22;2532;52.480;13.354;2023-04-24T17:48:18;14.70;74.70
5027;DHT22;2532;52.480;13.354;2023-04-24T17:50:46;14.70;75.00
5027;DHT22;2532;52.480;13.354;2023-04-24T17:53:13;14.70;75.30
5027;DHT22;2532;52.480;13.354;2023-04-24T17:55:40;14.60;75.30
5027;DHT22;2532;52.480;13.354;2023-04-24T17:58:08;14.50;75.60
5027;DHT22;2532;52.480;13.354;2023-04-24T18:00:35;14.40;75.30
5027;DHT22;2532;52.480;13.354;2023-04-24T18:03:03;14.40;75.60
5027;DHT22;2532;52.480;13.354;2023-04-24T18:05:32;14.30;75.50
5027;DHT22;2532;52.480;13.354;2023-04-24T18:08:02;14.20;75.80
5027;DHT22;2532;52.480;13.354;2023-04-24T18:10:30;14.20;76.00
5027;DHT22;2532;52.480;13.354;2023-04-24T18:12:58;14.10;76.20
5027;DHT22;2532;52.480;13.354;2023-04-24T18:15:25;14.00;76.60
5027;DHT22;2532;52.480;13.354;2023-04-24T18:17:51;14.00;76.90
5027;DHT22;2532;52.480;13.354;2023-04-24T18:20:19;14.00;77.20
5027;DHT22;2532;52.480;13.354;2023-04-24T18:22:46;13.90;77.30
5027;DHT22;2532;52.480;13.354;2023-04-24T18:25:15;13.90;77.60
5027;DHT22;2532;52.480;13.354;2023-04-24T18:27:42;13.80;77.70
5027;DHT22;2532;52.480;13.354;2023-04-24T18:30:10;13.80;77.50
5027;DHT22;2532;52.480;13.354;2023-04-24T18:32:37;13.80;77.30
5027;DHT22;2532;52.480;13.354;2023-04-24T18:35:04;13.80;77.40
5027;DHT22;2532;52.480;13.354;2023-04-24T18:37:31;13.70;77.30
5027;DHT22;2532;52.480;13.354;2023-04-24T18:39:58;13.60;76.80
5027;DHT22;2532;52.480;13.354;2023-04-24T18:42:27;13.50;76.80
5027;DHT22;2532;52.480;13.354;2023-04-24T18:44:54;13.40;77.50
5027;DHT22;2532;52.480;13.354;2023-04-24T18:47:25;13.40;78.10
5027;DHT22;2532;52.480;13.354;2023-04-24T18:49:52;13.40;78.40
5027;DHT22;2532;52.480;13.354;2023-04-24T18:52:20;13.30;78.30
5027;DHT22;2532;52.480;13.354;2023-04-24T18:54:47;13.30;78.30
5027;DHT22;2532;52.480;13.354;2023-04-24T18:57:14;13.20;78.30
5027;DHT22;2532;52.480;13.354;2023-04-24T18:59:42;13.10;78.00
5027;DHT22;2532;52.480;13.354;2023-04-24T19:02:09;13.10;77.70
5027;DHT22;2532;52.480;13.354;2023-04-24T19:04:36;13.00;77.80
5027;DHT22;2532;52.480;13.354;2023-04-24T19:07:03;12.90;77.70
5027;DHT22;2532;52.480;13.354;2023-04-24T19:09:31;12.90;77.80
5027;DHT22;2532;52.480;13.354;2023-04-24T19:11:58;12.80;78.10
5027;DHT22;2532;52.480;13.354;2023-04-24T19:14:26;12.70;78.20
5027;DHT22;2532;52.480;13.354;2023-04-24T19:16:54;12.70;78.70
5027;DHT22;2532;52.480;13.354;2023-04-24T19:19:21;12.70;78.80
5027;DHT22;2532;52.480;13.354;2023-04-24T19:21:50;12.70;78.90
5027;DHT22;2532;52.480;13.354;2023-04-24T19:24:17;12.70;79.10
5027;DHT22;2532;52.480;13.354;2023-04-24T19:26:46;12.70;79.40
5027;DHT22;2532;52.480;13.354;2023-04-24T19:29:13;12.70;79.60
5027;DHT22;2532;52.480;13.354;2023-04-24T19:31:40;12.70;79.70
5027;DHT22;2532;52.480;13.354;2023-04-24T19:34:08;12.70;79.80
5027;DHT22;2532;52.480;13.354;2023-04-24T19:36:35;12.70;80.00
5027;DHT22;2532;52.480;13.354;2023-04-24T19:39:03;12.70;80.30
5027;DHT22;2532;52.480;13.354;2023-04-24T19:41:29;12.60;80.40
5027;DHT22;2532;52.480;13.354;2023-04-24T19:43:56;12.60;80.70
5027;DHT22;2532;52.480;13.354;2023-04-24T19:46:23;12.60;80.90
5027;DHT22;2532;52.480;13.354;2023-04-24T19:48:50;12.50;80.90